Time;durP1;ratioP1;P1;durP2;ratioP2;P2;SDS_P1;SDS_P2;PMS_P1;PMS_P2;Temp;Humidity;BMP_temperature;BMP_pressure;BME280_temperature;BME280_humidity;BME280_pressure;Samples;Min_cycle;Max_cycle;Signal;HPM_P1;HPM_P2
2021/12/01 00:00:57;;;;;;;;;;;3.10;99.90;;;;;;5050742;28;19909;-76
2021/12/01 00:03:23;;;;;;;;;;;3.10;99.90;;;;;;5051380;28;20353;-76
2021/12/01 00:05:49;;;;;;;;;;;3.00;99.90;;;;;;5051139;28;19916;-77
2021/12/01 00:08:14;;;;;;;;;;;3.00;99.90;;;;;;5051117;28;20381;-77
2021/12/01 00:10:40;;;;;;;;;;;3.00;99.90;;;;;;5050963;28;19913;-76
2021/12/01 00:13:08;;;;;;;;;;;3.10;99.90;;;;;;5050742;28;20276;-77
2021/12/01 00:15:34;;;;;;;;;;;3.00;99.90;;;;;;5051128;28;19916;-77
2021/12/01 00:18:00;;;;;;;;;;;3.00;99.90;;;;;;5051076;28;19916;-76
2021/12/01 00:20:25;;;;;;;;;;;3.00;99.90;;;;;;5050869;28;19913;-77
2021/12/01 00:22:51;;;;;;;;;;;3.00;99.90;;;;;;5051178;28;19909;-77
2021/12/01 00:25:18;;;;;;;;;;;3.00;99.90;;;;;;5045317;28;19909;-77
2021/12/01 00:27:44;;;;;;;;;;;3.00;99.90;;;;;;5050822;28;19924;-77
2021/12/01 00:30:10;;;;;;;;;;;3.00;99.90;;;;;;5051115;28;19909;-77
2021/12/01 00:32:36;;;;;;;;;;;3.00;99.90;;;;;;5050945;28;19920;-76
2021/12/01 00:35:03;;;;;;;;;;;3.00;99.90;;;;;;5050532;28;19909;-77
2021/12/01 00:37:29;;;;;;;;;;;3.00;99.90;;;;;;5051190;28;20269;-77
2021/12/01 00:39:54;;;;;;;;;;;3.00;99.90;;;;;;5050807;28;19913;-77
2021/12/01 00:42:20;;;;;;;;;;;3.00;99.90;;;;;;5050642;28;19909;-77
2021/12/01 00:44:49;;;;;;;;;;;3.00;99.90;;;;;;5050588;28;19909;-76
2021/12/01 00:47:14;;;;;;;;;;;3.00;99.90;;;;;;5050878;28;19983;-77
2021/12/01 00:49:40;;;;;;;;;;;3.00;99.90;;;;;;5050591;28;19918;-76
2021/12/01 00:52:06;;;;;;;;;;;3.00;99.90;;;;;;5050568;28;20331;-77
2021/12/01 00:54:32;;;;;;;;;;;3.00;99.90;;;;;;5050356;28;20078;-77
2021/12/01 00:56:57;;;;;;;;;;;3.00;99.90;;;;;;5050760;28;19908;-77
2021/12/01 00:59:23;;;;;;;;;;;2.90;99.90;;;;;;5049324;28;20299;-76
2021/12/01 01:01:48;;;;;;;;;;;2.90;99.90;;;;;;5050647;28;19908;-77
2021/12/01 01:04:14;;;;;;;;;;;3.00;99.90;;;;;;5060622;28;19915;-77
2021/12/01 01:06:41;;;;;;;;;;;3.00;99.90;;;;;;5070348;28;19959;-77
2021/12/01 01:09:07;;;;;;;;;;;3.00;99.90;;;;;;5074126;28;19917;-76
2021/12/01 01:17:06;;;;;;;;;;;2.90;99.90;;;;;;5080532;28;19919;-75
2021/12/01 01:19:32;;;;;;;;;;;3.00;99.90;;;;;;5064150;28;20281;-77
2021/12/01 01:21:59;;;;;;;;;;;3.00;99.90;;;;;;5054205;28;19916;-76
2021/12/01 01:24:24;;;;;;;;;;;3.00;99.90;;;;;;5053718;28;19974;-76
2021/12/01 01:26:50;;;;;;;;;;;3.00;99.90;;;;;;5053640;28;20131;-77
2021/12/01 01:29:21;;;;;;;;;;;3.00;99.90;;;;;;5053228;28;20404;-77
2021/12/01 01:31:49;;;;;;;;;;;3.10;99.90;;;;;;5053944;28;19912;-77
2021/12/01 01:34:15;;;;;;;;;;;3.00;99.90;;;;;;5053623;28;20381;-76
2021/12/01 01:36:40;;;;;;;;;;;3.10;99.90;;;;;;5053913;28;19920;-76
2021/12/01 01:39:06;;;;;;;;;;;3.10;99.90;;;;;;5054126;28;19909;-77
2021/12/01 01:41:31;;;;;;;;;;;3.10;99.90;;;;;;5053674;28;20368;-76
2021/12/01 01:43:57;;;;;;;;;;;3.10;99.90;;;;;;5053440;28;20328;-76
2021/12/01 01:46:22;;;;;;;;;;;3.10;99.90;;;;;;5053855;28;19916;-77
2021/12/01 01:51:14;;;;;;;;;;;3.20;99.90;;;;;;5053904;28;19975;-76
2021/12/01 01:53:40;;;;;;;;;;;3.20;99.90;;;;;;5052460;28;19909;-76
2021/12/01 01:56:06;;;;;;;;;;;3.20;99.90;;;;;;5048377;28;20285;-76
2021/12/01 01:58:32;;;;;;;;;;;3.20;99.90;;;;;;5053284;28;19913;-77
2021/12/01 02:01:08;;;;;;;;;;;3.20;99.90;;;;;;5053393;28;19915;-76
2021/12/01 02:03:36;;;;;;;;;;;3.20;99.90;;;;;;5054853;28;19916;-76
2021/12/01 02:06:02;;;;;;;;;;;3.20;99.90;;;;;;5079128;28;19968;-76
2021/12/01 02:08:29;;;;;;;;;;;3.20;99.90;;;;;;5055761;28;19986;-76
2021/12/01 02:10:57;;;;;;;;;;;3.20;99.90;;;;;;5053440;28;20427;-76
2021/12/01 02:13:23;;;;;;;;;;;3.30;99.90;;;;;;5051770;28;19980;-76
2021/12/01 02:15:49;;;;;;;;;;;3.30;99.90;;;;;;5053359;28;19912;-76
2021/12/01 02:18:15;;;;;;;;;;;3.30;99.90;;;;;;5051965;28;19959;-76
2021/12/01 02:20:40;;;;;;;;;;;3.30;99.90;;;;;;5052941;28;19947;-76
2021/12/01 02:23:06;;;;;;;;;;;3.30;99.90;;;;;;5052655;28;20412;-76
2021/12/01 02:25:32;;;;;;;;;;;3.30;99.90;;;;;;5051759;28;19912;-76
2021/12/01 02:27:57;;;;;;;;;;;3.30;99.90;;;;;;5052594;28;19964;-76
2021/12/01 02:30:23;;;;;;;;;;;3.30;99.90;;;;;;5052868;28;19913;-76
2021/12/01 02:32:50;;;;;;;;;;;3.30;99.90;;;;;;5052718;28;20346;-76
2021/12/01 02:35:16;;;;;;;;;;;3.40;99.90;;;;;;5052488;28;19966;-76
2021/12/01 02:37:41;;;;;;;;;;;3.30;99.90;;;;;;5052869;28;20285;-76
2021/12/01 02:40:07;;;;;;;;;;;3.30;99.90;;;;;;5052541;28;19948;-76
2021/12/01 02:42:33;;;;;;;;;;;3.30;99.90;;;;;;5052649;28;19931;-76
2021/12/01 02:44:59;;;;;;;;;;;3.30;99.90;;;;;;5052744;28;19909;-76
2021/12/01 02:47:28;;;;;;;;;;;3.40;99.90;;;;;;5052664;28;19909;-77
2021/12/01 02:49:55;;;;;;;;;;;3.50;99.90;;;;;;5052479;28;20360;-76
2021/12/01 02:52:22;;;;;;;;;;;3.40;99.90;;;;;;5052422;28;19913;-77
2021/12/01 02:54:48;;;;;;;;;;;3.40;99.90;;;;;;5048003;28;20365;-76
2021/12/01 02:57:14;;;;;;;;;;;3.50;99.90;;;;;;5052396;28;19915;-76
2021/12/01 02:59:39;;;;;;;;;;;3.50;99.90;;;;;;5052363;28;19912;-77
2021/12/01 03:02:05;;;;;;;;;;;3.50;99.90;;;;;;5052370;28;19916;-77
2021/12/01 03:04:31;;;;;;;;;;;3.50;99.90;;;;;;5051962;28;19992;-76
2021/12/01 03:06:57;;;;;;;;;;;3.40;99.90;;;;;;5052235;28;19913;-76
2021/12/01 03:09:22;;;;;;;;;;;3.40;99.90;;;;;;5051960;28;19913;-76
2021/12/01 03:11:49;;;;;;;;;;;3.50;99.90;;;;;;5052043;28;19912;-76
2021/12/01 03:14:16;;;;;;;;;;;3.50;99.90;;;;;;5051830;28;19913;-76
2021/12/01 03:16:41;;;;;;;;;;;3.60;99.90;;;;;;5051957;28;19917;-76
2021/12/01 03:19:07;;;;;;;;;;;3.60;99.90;;;;;;5051968;28;20293;-76
2021/12/01 03:21:36;;;;;;;;;;;3.60;99.90;;;;;;5051784;28;19917;-76
2021/12/01 03:24:02;;;;;;;;;;;3.60;99.90;;;;;;5051596;28;19912;-76
2021/12/01 03:26:29;;;;;;;;;;;3.60;99.90;;;;;;5051371;28;19935;-76
2021/12/01 03:28:54;;;;;;;;;;;3.60;99.90;;;;;;5051843;28;20374;-76
2021/12/01 03:31:20;;;;;;;;;;;3.60;99.90;;;;;;5051634;28;19913;-76
2021/12/01 03:33:45;;;;;;;;;;;3.70;99.90;;;;;;5051291;28;19920;-76
2021/12/01 03:36:11;;;;;;;;;;;3.70;99.90;;;;;;5050732;28;19934;-76
2021/12/01 03:38:36;;;;;;;;;;;3.70;99.90;;;;;;5051555;28;19909;-76
2021/12/01 03:41:02;;;;;;;;;;;3.70;99.90;;;;;;5051696;28;19912;-76
2021/12/01 03:43:27;;;;;;;;;;;3.70;99.90;;;;;;5051153;28;19997;-76
2021/12/01 03:45:53;;;;;;;;;;;3.70;99.90;;;;;;5051609;28;19996;-76
2021/12/01 03:48:20;;;;;;;;;;;3.80;99.90;;;;;;5051531;28;19909;-76
2021/12/01 03:50:49;;;;;;;;;;;3.80;99.90;;;;;;5051235;28;19909;-76
2021/12/01 03:53:16;;;;;;;;;;;3.80;99.90;;;;;;5050961;28;19996;-77
2021/12/01 03:55:41;;;;;;;;;;;3.80;99.90;;;;;;5049199;28;19917;-76
2021/12/01 03:58:07;;;;;;;;;;;3.90;99.90;;;;;;5051292;28;19909;-76
2021/12/01 04:00:32;;;;;;;;;;;3.90;99.90;;;;;;5051255;28;20054;-76
2021/12/01 04:02:58;;;;;;;;;;;3.80;99.90;;;;;;5050627;28;20250;-76
2021/12/01 04:05:23;;;;;;;;;;;3.80;99.90;;;;;;5051367;28;19916;-76
2021/12/01 04:07:49;;;;;;;;;;;3.90;99.90;;;;;;5051085;28;19909;-76
2021/12/01 04:10:16;;;;;;;;;;;3.80;99.90;;;;;;5051059;28;19920;-76
2021/12/01 04:12:42;;;;;;;;;;;3.80;99.90;;;;;;5050767;28;19913;-76
2021/12/01 04:15:09;;;;;;;;;;;3.80;99.90;;;;;;5050683;28;19962;-76
2021/12/01 04:17:34;;;;;;;;;;;4.00;99.90;;;;;;5050921;28;19916;-76
2021/12/01 04:20:00;;;;;;;;;;;3.90;99.90;;;;;;5050820;28;20296;-76
2021/12/01 04:22:25;;;;;;;;;;;4.00;99.90;;;;;;5044473;28;19912;-76
2021/12/01 04:24:51;;;;;;;;;;;4.10;99.90;;;;;;5046277;28;19935;-76
2021/12/01 04:27:16;;;;;;;;;;;4.10;99.90;;;;;;5050668;28;19917;-76
2021/12/01 04:29:42;;;;;;;;;;;4.00;99.90;;;;;;5050846;28;19909;-76
2021/12/01 04:32:10;;;;;;;;;;;4.00;99.90;;;;;;5049552;28;19912;-76
2021/12/01 04:34:36;;;;;;;;;;;4.10;99.90;;;;;;5050309;28;19917;-76
2021/12/01 04:37:02;;;;;;;;;;;4.10;99.90;;;;;;5050893;28;19959;-77
2021/12/01 04:39:28;;;;;;;;;;;4.10;99.90;;;;;;5050914;28;19951;-76
2021/12/01 04:42:03;;;;;;;;;;;4.10;99.90;;;;;;5050751;28;19953;-76
2021/12/01 04:44:30;;;;;;;;;;;4.20;99.90;;;;;;5050585;28;19963;-76
2021/12/01 04:46:57;;;;;;;;;;;4.10;99.90;;;;;;5052402;28;19909;-76
2021/12/01 04:49:23;;;;;;;;;;;4.20;99.90;;;;;;5054786;28;19909;-77
2021/12/01 04:52:00;;;;;;;;;;;4.10;99.90;;;;;;5054641;28;19974;-76
2021/12/01 04:54:26;;;;;;;;;;;4.10;99.90;;;;;;5054259;28;19913;-76
2021/12/01 04:56:52;;;;;;;;;;;4.10;99.90;;;;;;5054491;28;19920;-76
2021/12/01 04:59:18;;;;;;;;;;;4.10;99.90;;;;;;5054507;28;19923;-76
2021/12/01 05:01:44;;;;;;;;;;;4.10;99.90;;;;;;5054390;28;19940;-76
2021/12/01 05:04:11;;;;;;;;;;;4.30;99.90;;;;;;5054140;28;19916;-76
2021/12/01 05:06:37;;;;;;;;;;;4.40;99.90;;;;;;5054517;28;19908;-76
2021/12/01 05:09:03;;;;;;;;;;;4.60;99.90;;;;;;5054804;28;19995;-76
2021/12/01 05:11:29;;;;;;;;;;;4.50;99.90;;;;;;5054432;28;19995;-76
2021/12/01 05:13:54;;;;;;;;;;;4.40;99.90;;;;;;5054040;28;19919;-77
2021/12/01 05:16:20;;;;;;;;;;;4.40;99.90;;;;;;5054398;28;19916;-76
2021/12/01 05:18:46;;;;;;;;;;;4.40;99.90;;;;;;5054332;28;19909;-76
2021/12/01 05:21:11;;;;;;;;;;;4.40;99.90;;;;;;5054211;28;19909;-76
2021/12/01 05:23:37;;;;;;;;;;;4.40;99.90;;;;;;5053421;28;19909;-76
2021/12/01 05:26:02;;;;;;;;;;;4.40;99.90;;;;;;5052185;28;19913;-76
2021/12/01 05:28:28;;;;;;;;;;;4.30;99.90;;;;;;5054336;28;19912;-76
2021/12/01 05:30:55;;;;;;;;;;;4.40;99.90;;;;;;5054983;28;20293;-76
2021/12/01 05:33:21;;;;;;;;;;;4.40;99.90;;;;;;5054680;28;19909;-76
2021/12/01 05:35:46;;;;;;;;;;;4.40;99.90;;;;;;5053962;28;19931;-76
2021/12/01 05:38:12;;;;;;;;;;;4.40;99.90;;;;;;5054099;28;19913;-76
2021/12/01 05:40:38;;;;;;;;;;;4.40;99.90;;;;;;5054195;28;19909;-76
2021/12/01 05:43:03;;;;;;;;;;;4.40;99.90;;;;;;5055010;28;20348;-76
2021/12/01 05:45:29;;;;;;;;;;;4.40;99.90;;;;;;5054318;28;19916;-77
2021/12/01 05:47:54;;;;;;;;;;;4.60;99.90;;;;;;5054042;28;19924;-76
2021/12/01 05:50:20;;;;;;;;;;;4.60;99.90;;;;;;5054031;28;19908;-76
2021/12/01 05:52:45;;;;;;;;;;;4.70;99.90;;;;;;5053722;28;20001;-76
2021/12/01 05:55:11;;;;;;;;;;;4.70;99.90;;;;;;5045808;28;19968;-77
2021/12/01 05:57:36;;;;;;;;;;;4.70;99.90;;;;;;5053106;28;19912;-76
2021/12/01 06:00:08;;;;;;;;;;;4.80;99.90;;;;;;5049025;28;20310;-76
2021/12/01 06:02:34;;;;;;;;;;;4.80;99.90;;;;;;5052076;28;19913;-76
2021/12/01 06:04:59;;;;;;;;;;;4.80;99.90;;;;;;5053326;28;19951;-76
2021/12/01 06:07:25;;;;;;;;;;;4.90;99.90;;;;;;5053676;28;20361;-76
2021/12/01 06:09:51;;;;;;;;;;;4.70;99.90;;;;;;5053659;28;19916;-76
2021/12/01 06:12:17;;;;;;;;;;;4.80;99.90;;;;;;5053854;28;20015;-76
2021/12/01 06:14:43;;;;;;;;;;;4.80;99.90;;;;;;5053469;28;19952;-76
2021/12/01 06:17:10;;;;;;;;;;;4.80;99.90;;;;;;5053487;28;19909;-76
2021/12/01 06:19:39;;;;;;;;;;;4.80;99.90;;;;;;5053151;28;20325;-77
2021/12/01 06:22:05;;;;;;;;;;;4.80;99.90;;;;;;5053357;28;19913;-76
2021/12/01 06:24:30;;;;;;;;;;;5.00;99.90;;;;;;5053008;28;20047;-76
2021/12/01 06:26:56;;;;;;;;;;;5.10;99.90;;;;;;5053182;28;19916;-77
2021/12/01 06:29:22;;;;;;;;;;;5.00;99.90;;;;;;5053184;28;20699;-76
2021/12/01 06:31:47;;;;;;;;;;;5.10;99.90;;;;;;5052793;28;19913;-76
2021/12/01 06:34:13;;;;;;;;;;;5.10;99.90;;;;;;5052961;28;20368;-76
2021/12/01 06:36:38;;;;;;;;;;;5.10;99.90;;;;;;5053173;28;20391;-77
2021/12/01 06:39:05;;;;;;;;;;;5.20;99.90;;;;;;5053154;28;20003;-76
2021/12/01 06:41:30;;;;;;;;;;;5.20;99.90;;;;;;5052954;28;19964;-77
2021/12/01 06:43:56;;;;;;;;;;;5.00;99.90;;;;;;5052874;28;20296;-76
2021/12/01 06:46:21;;;;;;;;;;;5.10;99.90;;;;;;5052945;28;19909;-76
2021/12/01 06:48:47;;;;;;;;;;;5.10;99.90;;;;;;5052854;28;19909;-76
2021/12/01 06:51:12;;;;;;;;;;;5.10;99.90;;;;;;5052761;28;20293;-76
2021/12/01 06:53:38;;;;;;;;;;;5.10;99.90;;;;;;5052424;28;19913;-76
2021/12/01 06:56:04;;;;;;;;;;;5.20;99.90;;;;;;5052618;28;19908;-76
2021/12/01 06:58:29;;;;;;;;;;;5.20;99.90;;;;;;5052541;28;19909;-76
2021/12/01 07:00:55;;;;;;;;;;;5.30;99.90;;;;;;5050290;28;19917;-76
2021/12/01 07:03:20;;;;;;;;;;;5.30;99.90;;;;;;5052098;28;19909;-76
2021/12/01 07:05:46;;;;;;;;;;;5.30;99.90;;;;;;5052957;28;19909;-76
2021/12/01 07:08:11;;;;;;;;;;;5.20;99.90;;;;;;5052550;28;19909;-76
2021/12/01 07:10:37;;;;;;;;;;;5.20;99.90;;;;;;5052792;28;19959;-76
2021/12/01 07:13:02;;;;;;;;;;;5.20;99.90;;;;;;5051887;28;19913;-76
2021/12/01 07:15:28;;;;;;;;;;;5.30;99.90;;;;;;5052309;28;19909;-76
2021/12/01 07:17:53;;;;;;;;;;;5.30;99.90;;;;;;5052318;28;19948;-76
2021/12/01 07:20:19;;;;;;;;;;;5.40;99.90;;;;;;5052288;28;19909;-76
2021/12/01 07:22:44;;;;;;;;;;;5.50;99.90;;;;;;5052411;28;19958;-76
2021/12/01 07:25:11;;;;;;;;;;;5.50;99.90;;;;;;5052036;28;20293;-76
2021/12/01 07:27:36;;;;;;;;;;;5.50;99.90;;;;;;5050620;28;19917;-75
2021/12/01 07:30:02;;;;;;;;;;;5.50;99.90;;;;;;5051528;28;20358;-76
2021/12/01 07:32:28;;;;;;;;;;;5.40;99.90;;;;;;5050467;28;19913;-76
2021/12/01 07:34:55;;;;;;;;;;;5.50;99.90;;;;;;5048142;28;19944;-76
2021/12/01 07:37:20;;;;;;;;;;;5.50;99.90;;;;;;5051078;28;19913;-76
2021/12/01 07:39:46;;;;;;;;;;;5.50;99.90;;;;;;5051115;28;20365;-76
2021/12/01 07:42:12;;;;;;;;;;;5.60;99.90;;;;;;5047306;28;19908;-76
2021/12/01 07:44:38;;;;;;;;;;;5.60;99.90;;;;;;5048205;28;19909;-76
2021/12/01 07:47:04;;;;;;;;;;;5.60;99.90;;;;;;5051526;28;19920;-76
2021/12/01 07:49:30;;;;;;;;;;;5.70;99.90;;;;;;5051519;28;19909;-76
2021/12/01 07:51:55;;;;;;;;;;;5.70;99.90;;;;;;5051331;28;19924;-76
2021/12/01 07:54:21;;;;;;;;;;;5.80;99.90;;;;;;5048434;28;20364;-76
2021/12/01 07:56:46;;;;;;;;;;;5.70;99.90;;;;;;5051246;28;19909;-77
2021/12/01 07:59:15;;;;;;;;;;;5.60;99.90;;;;;;5051369;28;20008;-76
2021/12/01 08:01:44;;;;;;;;;;;5.60;99.90;;;;;;5046979;28;19913;-76
2021/12/01 08:04:10;;;;;;;;;;;5.70;99.90;;;;;;5049819;28;20293;-76
2021/12/01 08:06:36;;;;;;;;;;;5.90;99.90;;;;;;5051048;28;19966;-76
2021/12/01 08:09:02;;;;;;;;;;;6.10;99.90;;;;;;5051394;28;20284;-75
2021/12/01 08:11:28;;;;;;;;;;;6.20;99.90;;;;;;5051184;28;20261;-76
2021/12/01 08:13:53;;;;;;;;;;;6.30;99.90;;;;;;5050837;28;19909;-76
2021/12/01 08:16:19;;;;;;;;;;;6.30;99.90;;;;;;5051405;28;20003;-75
2021/12/01 08:18:45;;;;;;;;;;;6.30;99.90;;;;;;5051353;28;19919;-76
2021/12/01 08:21:10;;;;;;;;;;;6.20;99.90;;;;;;5050601;28;20671;-76
2021/12/01 08:23:36;;;;;;;;;;;6.00;99.90;;;;;;5050867;28;20023;-76
2021/12/01 08:26:01;;;;;;;;;;;5.90;99.90;;;;;;5051008;28;20273;-76
2021/12/01 08:28:27;;;;;;;;;;;5.90;99.90;;;;;;5051161;28;20011;-77
2021/12/01 08:30:52;;;;;;;;;;;6.00;99.90;;;;;;5048537;28;19916;-76
2021/12/01 08:33:18;;;;;;;;;;;6.00;99.90;;;;;;5050498;28;19912;-76
2021/12/01 08:35:43;;;;;;;;;;;6.10;99.90;;;;;;5050932;28;19919;-76
2021/12/01 08:38:09;;;;;;;;;;;6.10;99.90;;;;;;5049669;28;19998;-76
2021/12/01 08:40:35;;;;;;;;;;;6.30;99.90;;;;;;5050725;28;19921;-76
2021/12/01 08:43:00;;;;;;;;;;;6.30;99.90;;;;;;5050567;28;19909;-76
2021/12/01 08:45:26;;;;;;;;;;;6.50;99.90;;;;;;5051079;28;19944;-76
2021/12/01 08:47:51;;;;;;;;;;;7.10;99.90;;;;;;5051488;28;20341;-76
2021/12/01 08:50:17;;;;;;;;;;;8.20;99.90;;;;;;5051009;28;20011;-76
2021/12/01 08:52:45;;;;;;;;;;;9.50;99.90;;;;;;5049636;28;19912;-77
2021/12/01 08:55:10;;;;;;;;;;;9.10;99.90;;;;;;5050123;28;19920;-76
2021/12/01 08:57:36;;;;;;;;;;;9.60;99.90;;;;;;5050799;28;19908;-76
2021/12/01 09:00:04;;;;;;;;;;;9.30;99.90;;;;;;5050644;28;19908;-76
2021/12/01 09:02:29;;;;;;;;;;;8.30;99.90;;;;;;5044944;28;19916;-76
2021/12/01 09:04:55;;;;;;;;;;;9.30;99.90;;;;;;5044939;28;19913;-76
2021/12/01 09:07:20;;;;;;;;;;;8.60;99.90;;;;;;5050879;28;19955;-76
2021/12/01 09:09:46;;;;;;;;;;;10.00;99.90;;;;;;5059617;28;19916;-76
2021/12/01 09:12:14;;;;;;;;;;;9.00;99.90;;;;;;5050646;28;19974;-76
2021/12/01 09:14:40;;;;;;;;;;;9.30;99.90;;;;;;5050289;28;19962;-76
2021/12/01 09:17:05;;;;;;;;;;;8.60;99.90;;;;;;5050766;28;20003;-76
2021/12/01 09:19:31;;;;;;;;;;;11.10;99.90;;;;;;5050689;28;20404;-74
2021/12/01 09:21:56;;;;;;;;;;;12.60;99.90;;;;;;5050588;28;19909;-75
2021/12/01 09:24:22;;;;;;;;;;;12.90;99.90;;;;;;5050198;28;19916;-74
2021/12/01 09:26:48;;;;;;;;;;;11.50;99.90;;;;;;5050738;28;19942;-74
2021/12/01 09:29:14;;;;;;;;;;;10.50;99.90;;;;;;5050593;28;20003;-74
2021/12/01 09:31:40;;;;;;;;;;;9.30;99.90;;;;;;5044826;28;20392;-74
2021/12/01 09:34:05;;;;;;;;;;;8.50;99.90;;;;;;5051976;28;20027;-74
2021/12/01 09:36:31;;;;;;;;;;;8.20;99.90;;;;;;5052908;28;19909;-74
2021/12/01 09:38:57;;;;;;;;;;;8.10;99.90;;;;;;5053766;28;20357;-74
2021/12/01 09:41:23;;;;;;;;;;;7.90;99.90;;;;;;5053949;28;19909;-74
2021/12/01 09:43:49;;;;;;;;;;;7.80;99.90;;;;;;5053455;28;19909;-74
2021/12/01 09:46:14;;;;;;;;;;;7.90;99.90;;;;;;5053975;28;19916;-74
2021/12/01 09:48:41;;;;;;;;;;;7.80;99.90;;;;;;5053996;28;19932;-73
2021/12/01 09:51:07;;;;;;;;;;;7.70;99.90;;;;;;5053657;28;19909;-75
2021/12/01 09:53:33;;;;;;;;;;;7.80;99.90;;;;;;5048283;28;20211;-75
2021/12/01 09:55:59;;;;;;;;;;;7.80;99.90;;;;;;5049943;28;20011;-75
2021/12/01 09:58:30;;;;;;;;;;;8.00;99.90;;;;;;5053606;28;19912;-75
2021/12/01 10:00:57;;;;;;;;;;;8.00;99.90;;;;;;5050654;28;20389;-75
2021/12/01 10:03:23;;;;;;;;;;;8.00;99.90;;;;;;5053168;28;20312;-75
2021/12/01 10:05:49;;;;;;;;;;;8.00;99.90;;;;;;5053399;28;19965;-75
2021/12/01 10:08:19;;;;;;;;;;;7.90;99.90;;;;;;5047482;28;20011;-75
2021/12/01 10:10:45;;;;;;;;;;;7.90;99.90;;;;;;5051786;28;19909;-75
2021/12/01 10:13:10;;;;;;;;;;;8.10;99.90;;;;;;5053024;28;19917;-75
2021/12/01 10:15:36;;;;;;;;;;;8.10;99.90;;;;;;5053215;28;19913;-75
2021/12/01 10:18:08;;;;;;;;;;;8.10;99.90;;;;;;5053467;28;19909;-75
2021/12/01 10:20:34;;;;;;;;;;;8.10;99.90;;;;;;5053106;28;20424;-75
2021/12/01 10:23:29;;;;;;;;;;;8.10;99.90;;;;;;5053034;28;19912;-75
2021/12/01 10:25:56;;;;;;;;;;;8.10;99.90;;;;;;5043949;28;19909;-75
2021/12/01 10:28:32;;;;;;;;;;;8.10;99.90;;;;;;5045342;28;20361;-75
2021/12/01 10:30:57;;;;;;;;;;;8.00;99.90;;;;;;5052435;28;19916;-75
2021/12/01 10:33:23;;;;;;;;;;;7.90;99.90;;;;;;5052514;28;19912;-75
2021/12/01 10:35:48;;;;;;;;;;;8.00;99.90;;;;;;5053062;28;19915;-75
2021/12/01 10:38:24;;;;;;;;;;;8.00;99.90;;;;;;5047258;28;19917;-75
2021/12/01 10:40:59;;;;;;;;;;;8.00;99.90;;;;;;5054527;28;19909;-75
2021/12/01 10:43:33;;;;;;;;;;;8.00;99.90;;;;;;5053422;28;19913;-75
2021/12/01 10:46:04;;;;;;;;;;;8.00;99.90;;;;;;5052276;28;19916;-75
2021/12/01 10:48:30;;;;;;;;;;;8.00;99.90;;;;;;5052866;28;19979;-74
2021/12/01 10:50:55;;;;;;;;;;;8.10;99.90;;;;;;5052613;28;20362;-75
2021/12/01 10:53:23;;;;;;;;;;;8.20;99.90;;;;;;5051254;28;19912;-75
2021/12/01 10:55:50;;;;;;;;;;;8.40;99.90;;;;;;5051930;28;19999;-75
2021/12/01 10:58:16;;;;;;;;;;;8.30;99.90;;;;;;5052789;28;19968;-74
2021/12/01 11:00:43;;;;;;;;;;;8.20;99.90;;;;;;5042701;28;20385;-75
2021/12/01 11:03:10;;;;;;;;;;;8.10;99.90;;;;;;5046518;28;19916;-75
2021/12/01 11:05:37;;;;;;;;;;;8.00;99.90;;;;;;5053000;28;19919;-75
2021/12/01 11:08:16;;;;;;;;;;;7.90;99.90;;;;;;5048942;28;19970;-75
2021/12/01 11:10:42;;;;;;;;;;;7.90;99.90;;;;;;5050466;28;19975;-75
2021/12/01 11:13:08;;;;;;;;;;;7.90;99.90;;;;;;5051952;28;20381;-75
2021/12/01 11:15:35;;;;;;;;;;;7.90;99.90;;;;;;5052243;28;19916;-75
2021/12/01 11:18:01;;;;;;;;;;;7.80;99.90;;;;;;5052231;28;19939;-75
2021/12/01 11:20:32;;;;;;;;;;;7.70;99.90;;;;;;5052037;28;20009;-75
2021/12/01 11:23:09;;;;;;;;;;;7.70;99.90;;;;;;5052098;28;20276;-76
2021/12/01 11:25:37;;;;;;;;;;;7.80;99.90;;;;;;5050839;28;19909;-75
2021/12/01 11:28:08;;;;;;;;;;;7.80;99.90;;;;;;5052260;28;20361;-76
2021/12/01 11:30:36;;;;;;;;;;;7.70;99.90;;;;;;5048668;28;19951;-76
2021/12/01 11:33:02;;;;;;;;;;;7.70;99.90;;;;;;5045191;28;19913;-75
2021/12/01 11:35:28;;;;;;;;;;;7.90;99.90;;;;;;5051374;28;19931;-76
2021/12/01 11:37:57;;;;;;;;;;;7.70;99.90;;;;;;5048137;28;19909;-77
2021/12/01 11:40:27;;;;;;;;;;;7.40;99.90;;;;;;5050096;28;19916;-75
2021/12/01 11:42:54;;;;;;;;;;;7.30;99.90;;;;;;5051315;28;19908;-76
2021/12/01 11:45:19;;;;;;;;;;;7.20;99.90;;;;;;5051308;28;20082;-76
2021/12/01 11:47:48;;;;;;;;;;;7.30;99.90;;;;;;5051580;28;19912;-76
2021/12/01 11:50:32;;;;;;;;;;;7.30;99.90;;;;;;5051468;28;19913;-77
2021/12/01 11:53:18;;;;;;;;;;;7.30;99.90;;;;;;5045564;28;19923;-78
2021/12/01 11:56:02;;;;;;;;;;;7.30;99.90;;;;;;5049025;28;19913;-76
2021/12/01 11:58:44;;;;;;;;;;;7.30;99.90;;;;;;5060524;28;19909;-76
2021/12/01 12:01:22;;;;;;;;;;;7.40;99.90;;;;;;5044715;28;19916;-76
2021/12/01 12:04:09;;;;;;;;;;;7.40;99.90;;;;;;5051499;28;19909;-76
2021/12/01 12:06:36;;;;;;;;;;;7.30;99.90;;;;;;5050997;28;19909;-76
2021/12/01 12:09:06;;;;;;;;;;;7.10;99.90;;;;;;5051414;28;19908;-75
2021/12/01 12:11:34;;;;;;;;;;;7.10;99.90;;;;;;5051373;28;19921;-75
2021/12/01 12:14:11;;;;;;;;;;;7.10;99.90;;;;;;5043610;28;19909;-76
2021/12/01 12:16:37;;;;;;;;;;;7.20;99.90;;;;;;5049990;28;20371;-75
2021/12/01 12:19:03;;;;;;;;;;;7.20;99.90;;;;;;5051476;28;19909;-76
2021/12/01 12:21:46;;;;;;;;;;;7.20;99.90;;;;;;5051407;28;20016;-76
2021/12/01 12:24:16;;;;;;;;;;;7.30;99.90;;;;;;5051322;28;20444;-76
2021/12/01 12:26:44;;;;;;;;;;;7.30;99.90;;;;;;5051208;28;19920;-75
2021/12/01 12:29:21;;;;;;;;;;;7.40;99.90;;;;;;5050178;28;19909;-75
2021/12/01 12:31:48;;;;;;;;;;;7.30;99.90;;;;;;5050486;28;19913;-76
2021/12/01 12:34:15;;;;;;;;;;;7.30;99.90;;;;;;5051111;28;20266;-76
2021/12/01 12:36:57;;;;;;;;;;;7.30;99.90;;;;;;5049375;28;19978;-76
2021/12/01 12:39:31;;;;;;;;;;;7.30;99.90;;;;;;5044762;28;19940;-75
2021/12/01 12:42:04;;;;;;;;;;;7.30;99.90;;;;;;5050974;28;19908;-75
2021/12/01 12:44:37;;;;;;;;;;;7.20;99.90;;;;;;5049362;28;19962;-75
2021/12/01 12:47:22;;;;;;;;;;;7.20;99.90;;;;;;5051093;28;19913;-75
2021/12/01 12:49:55;;;;;;;;;;;7.20;99.90;;;;;;5050934;28;19909;-76
2021/12/01 12:52:23;;;;;;;;;;;7.20;99.90;;;;;;5050846;28;19959;-75
2021/12/01 12:54:49;;;;;;;;;;;7.10;99.90;;;;;;5049060;28;19917;-75
2021/12/01 12:57:16;;;;;;;;;;;7.10;99.90;;;;;;5050577;28;19931;-76
2021/12/01 12:59:42;;;;;;;;;;;7.00;99.90;;;;;;5047123;28;20358;-75
2021/12/01 13:02:08;;;;;;;;;;;7.00;99.90;;;;;;5049302;28;19916;-76
2021/12/01 13:04:48;;;;;;;;;;;6.90;99.90;;;;;;5050395;28;19915;-76
2021/12/01 13:07:32;;;;;;;;;;;6.90;99.90;;;;;;5050938;28;19939;-76
2021/12/01 13:10:09;;;;;;;;;;;7.00;99.90;;;;;;5053511;28;20349;-75
2021/12/01 13:12:51;;;;;;;;;;;7.00;99.90;;;;;;5054438;28;19919;-75
2021/12/01 13:15:21;;;;;;;;;;;7.00;99.90;;;;;;5054099;28;19970;-75
2021/12/01 13:17:50;;;;;;;;;;;6.90;99.90;;;;;;5054259;28;19909;-75
2021/12/01 13:20:16;;;;;;;;;;;7.00;99.90;;;;;;5054355;28;19919;-76
2021/12/01 13:22:42;;;;;;;;;;;7.00;99.90;;;;;;5052858;28;20416;-75
2021/12/01 13:25:09;;;;;;;;;;;7.00;99.90;;;;;;5054103;28;19916;-75
2021/12/01 13:27:44;;;;;;;;;;;7.00;99.90;;;;;;5052780;28;20016;-77
2021/12/01 13:30:10;;;;;;;;;;;7.00;99.90;;;;;;5053916;28;19909;-75
2021/12/01 13:32:36;;;;;;;;;;;7.00;99.90;;;;;;5053994;28;19962;-75
2021/12/01 13:35:03;;;;;;;;;;;7.10;99.90;;;;;;5053799;28;19909;-75
2021/12/01 13:37:28;;;;;;;;;;;7.00;99.90;;;;;;5052330;28;20004;-76
2021/12/01 13:39:54;;;;;;;;;;;7.00;99.90;;;;;;5053864;28;19979;-75
2021/12/01 13:42:24;;;;;;;;;;;7.00;99.90;;;;;;5054204;28;19908;-75
2021/12/01 13:44:51;;;;;;;;;;;7.00;99.90;;;;;;5047486;28;19916;-75
2021/12/01 13:47:25;;;;;;;;;;;7.00;99.90;;;;;;5047800;28;19909;-75
2021/12/01 13:49:52;;;;;;;;;;;6.90;99.90;;;;;;5054318;28;19916;-75
2021/12/01 13:52:33;;;;;;;;;;;6.90;99.90;;;;;;5054241;28;19912;-75
2021/12/01 13:55:16;;;;;;;;;;;6.80;99.90;;;;;;5049271;28;19986;-77
2021/12/01 13:57:42;;;;;;;;;;;6.80;99.90;;;;;;5053663;28;20400;-75
2021/12/01 14:00:08;;;;;;;;;;;6.80;99.90;;;;;;5052743;28;19909;-75
2021/12/01 14:02:33;;;;;;;;;;;6.80;99.90;;;;;;5048283;28;20323;-75
2021/12/01 14:05:01;;;;;;;;;;;6.90;99.90;;;;;;5053430;28;19909;-75
2021/12/01 14:07:39;;;;;;;;;;;6.90;99.90;;;;;;5053443;28;19960;-75
2021/12/01 14:10:10;;;;;;;;;;;6.90;99.90;;;;;;5053720;28;19994;-75
2021/12/01 14:12:36;;;;;;;;;;;6.90;99.90;;;;;;5053469;28;19973;-76
2021/12/01 14:15:02;;;;;;;;;;;6.90;99.90;;;;;;5053185;28;19943;-75
2021/12/01 14:17:28;;;;;;;;;;;6.90;99.90;;;;;;5053316;28;19909;-76
2021/12/01 14:19:57;;;;;;;;;;;6.90;99.90;;;;;;5052036;28;19908;-75
2021/12/01 14:22:23;;;;;;;;;;;6.90;99.90;;;;;;5053089;28;19913;-75
2021/12/01 14:24:54;;;;;;;;;;;6.80;99.90;;;;;;5052927;28;19916;-75
2021/12/01 14:27:27;;;;;;;;;;;6.80;99.90;;;;;;5052959;28;19971;-75
2021/12/01 14:29:55;;;;;;;;;;;6.80;99.90;;;;;;5049055;28;20007;-75
2021/12/01 14:32:23;;;;;;;;;;;6.80;99.90;;;;;;5051993;28;19913;-75
2021/12/01 14:34:48;;;;;;;;;;;6.80;99.90;;;;;;5052713;28;20320;-76
2021/12/01 14:37:15;;;;;;;;;;;6.70;99.90;;;;;;5042968;28;19991;-77